createdAt,value
2023-03-17T00:01:15.938Z,20.87
2023-03-17T00:03:44.639Z,21.98
2023-03-17T00:06:17.702Z,13.95
2023-03-17T00:08:44.797Z,25.02
2023-03-17T00:11:13.244Z,30.33
2023-03-17T00:13:39.772Z,24.23
2023-03-17T00:16:12.965Z,20.90
2023-03-17T00:18:39.566Z,27.90
2023-03-17T00:21:06.140Z,18.60
2023-03-17T00:23:32.614Z,22.17
2023-03-17T00:25:59.129Z,19.37
2023-03-17T00:28:27.896Z,21.67
2023-03-17T00:30:58.105Z,22.60
2023-03-17T00:33:27.445Z,27.17
2023-03-17T00:35:56.134Z,29.05
2023-03-17T00:38:23.312Z,25.23
2023-03-17T00:40:50.883Z,20.83
2023-03-17T00:43:18.175Z,30.83
2023-03-17T00:45:44.622Z,34.45
2023-03-17T00:48:19.721Z,25.02
2023-03-17T00:50:47.600Z,19.33
2023-03-17T00:53:16.551Z,29.00
2023-03-17T00:55:45.066Z,32.15
2023-03-17T00:58:25.539Z,29.67
2023-03-17T01:00:52.079Z,31.75
2023-03-17T01:03:18.645Z,33.77
2023-03-17T01:05:45.782Z,21.63
2023-03-17T01:08:12.635Z,36.38
2023-03-17T01:10:39.237Z,29.42
2023-03-17T01:13:06.918Z,28.38
2023-03-17T01:15:34.016Z,19.53
2023-03-17T01:18:02.101Z,33.38
2023-03-17T01:20:32.140Z,21.15
2023-03-17T01:22:59.520Z,23.88
2023-03-17T01:25:26.265Z,20.75
2023-03-17T01:27:54.264Z,21.60
2023-03-17T01:30:20.751Z,21.33
2023-03-17T01:32:47.321Z,23.25
2023-03-17T01:35:14.220Z,17.08
2023-03-17T01:37:40.758Z,22.15
2023-03-17T01:40:09.181Z,23.67
2023-03-17T01:42:36.286Z,18.38
2023-03-17T01:45:06.733Z,19.60
2023-03-17T01:47:33.874Z,16.60
2023-03-17T01:50:06.784Z,20.90
2023-03-17T01:52:38.377Z,18.97
2023-03-17T01:55:12.007Z,20.85
2023-03-17T01:57:47.695Z,21.08
2023-03-17T02:00:18.048Z,17.08
2023-03-17T02:02:47.059Z,13.57
2023-03-17T02:05:17.309Z,20.50
2023-03-17T02:07:44.413Z,23.30
2023-03-17T02:10:12.847Z,22.00
2023-03-17T02:12:43.723Z,18.20
2023-03-17T02:15:11.697Z,22.10
2023-03-17T02:17:38.931Z,14.23
2023-03-17T02:20:17.333Z,19.23
2023-03-17T02:22:45.363Z,20.50
2023-03-17T02:25:11.958Z,20.90
2023-03-17T02:27:42.467Z,22.40
2023-03-17T02:30:10.974Z,18.00
2023-03-17T02:32:38.076Z,22.58
2023-03-17T02:35:06.602Z,24.33
2023-03-17T02:37:33.340Z,18.00
2023-03-17T02:40:00.273Z,15.45
2023-03-17T02:42:27.280Z,22.27
2023-03-17T02:44:53.918Z,20.27
2023-03-17T02:47:20.902Z,21.65
2023-03-17T02:49:47.736Z,15.18
2023-03-17T02:52:14.258Z,13.25
2023-03-17T02:54:40.956Z,13.33
2023-03-17T02:57:07.474Z,11.93
2023-03-17T02:59:34.582Z,13.00
2023-03-17T03:02:01.102Z,16.73
2023-03-17T03:04:27.809Z,18.30
2023-03-17T03:06:54.364Z,18.13
2023-03-17T03:09:21.037Z,9.98
2023-03-17T03:11:47.883Z,15.52
2023-03-17T03:14:14.928Z,13.23
2023-03-17T03:16:41.430Z,9.40
2023-03-17T03:19:08.053Z,16.03
2023-03-17T03:21:35.161Z,14.65
2023-03-17T03:24:01.633Z,10.60
2023-03-17T03:26:28.238Z,14.50
2023-03-17T03:28:54.756Z,18.88
2023-03-17T03:31:21.305Z,13.70
2023-03-17T03:33:47.989Z,17.27
2023-03-17T03:36:14.478Z,14.82
2023-03-17T03:38:41.038Z,16.55
2023-03-17T03:41:08.309Z,16.95
2023-03-17T03:43:35.222Z,13.03
2023-03-17T03:46:02.236Z,17.67
2023-03-17T03:48:28.831Z,14.05
2023-03-17T03:50:59.660Z,14.38
2023-03-17T03:53:27.312Z,18.33
2023-03-17T03:55:54.330Z,19.57
2023-03-17T03:58:21.370Z,16.10
2023-03-17T04:00:47.991Z,14.82
2023-03-17T04:03:15.364Z,18.58
2023-03-17T04:05:41.942Z,19.38
2023-03-17T04:08:08.596Z,21.20
2023-03-17T04:10:35.299Z,14.05
2023-03-17T04:13:02.154Z,13.93
2023-03-17T04:15:29.074Z,11.65
2023-03-17T04:17:55.705Z,16.25
2023-03-17T04:20:22.305Z,13.73
2023-03-17T04:22:48.835Z,13.07
2023-03-17T04:25:15.814Z,12.50
2023-03-17T04:27:42.802Z,15.93
2023-03-17T04:30:11.851Z,11.93
2023-03-17T04:32:38.396Z,9.00
2023-03-17T04:35:05.886Z,13.20
2023-03-17T04:37:34.597Z,14.43
2023-03-17T04:40:01.404Z,10.52
2023-03-17T04:42:27.879Z,12.52
2023-03-17T04:44:54.379Z,13.10
2023-03-17T04:47:20.970Z,13.05
2023-03-17T04:49:47.426Z,18.77
2023-03-17T04:52:13.926Z,13.60
2023-03-17T04:54:40.456Z,15.50
2023-03-17T04:57:06.932Z,14.63
2023-03-17T04:59:33.401Z,13.10
2023-03-17T05:01:59.966Z,13.73
2023-03-17T05:04:31.538Z,13.35
2023-03-17T05:06:58.800Z,9.80
2023-03-17T05:09:26.099Z,14.50
2023-03-17T05:11:52.611Z,14.60
2023-03-17T05:14:19.376Z,14.75
2023-03-17T05:16:49.838Z,12.65
2023-03-17T05:19:17.566Z,15.13
2023-03-17T05:21:44.160Z,14.47
2023-03-17T05:24:10.843Z,12.38
2023-03-17T05:26:38.179Z,12.68
2023-03-17T05:29:04.746Z,12.65
2023-03-17T05:31:31.780Z,8.82
2023-03-17T05:33:58.633Z,10.17
2023-03-17T05:36:25.134Z,12.65
2023-03-17T05:38:51.730Z,9.65
2023-03-17T05:41:18.200Z,10.90
2023-03-17T05:43:44.670Z,10.07
2023-03-17T05:46:11.297Z,9.20
2023-03-17T05:48:37.799Z,6.88
2023-03-17T05:51:04.518Z,9.85
2023-03-17T05:53:31.019Z,9.55
2023-03-17T05:55:57.478Z,11.10
2023-03-17T05:58:23.996Z,9.60
2023-03-17T06:00:50.558Z,7.53
2023-03-17T06:03:17.135Z,10.70
2023-03-17T06:05:43.649Z,10.82
2023-03-17T06:08:10.411Z,8.02
2023-03-17T06:10:36.920Z,9.67
2023-03-17T06:13:04.189Z,9.23
2023-03-17T06:15:32.523Z,7.68
2023-03-17T06:17:59.306Z,7.57
2023-03-17T06:20:25.833Z,9.63
2023-03-17T06:23:03.946Z,7.13
2023-03-17T06:25:31.404Z,5.82
2023-03-17T06:27:58.076Z,14.88
2023-03-17T06:30:24.598Z,8.52
2023-03-17T06:32:51.097Z,8.57
2023-03-17T06:35:17.660Z,9.40
2023-03-17T06:37:44.109Z,6.60
2023-03-17T06:40:11.221Z,8.75
2023-03-17T06:42:37.803Z,7.78
2023-03-17T06:45:04.571Z,8.85
2023-03-17T06:47:31.131Z,5.77
2023-03-17T06:49:57.713Z,7.88
2023-03-17T06:52:24.183Z,6.72
2023-03-17T06:54:50.642Z,8.63
2023-03-17T06:57:17.195Z,9.07
2023-03-17T06:59:43.646Z,6.70
2023-03-17T07:02:11.117Z,6.50
2023-03-17T07:04:38.058Z,7.78
2023-03-17T07:07:05.446Z,6.95
2023-03-17T07:09:33.458Z,9.55
2023-03-17T07:12:01.940Z,6.37
2023-03-17T07:14:28.745Z,7.72
2023-03-17T07:16:55.214Z,7.32
2023-03-17T07:19:21.736Z,7.85
2023-03-17T07:21:48.210Z,7.13
2023-03-17T07:24:14.715Z,5.47
2023-03-17T07:26:41.212Z,5.85
2023-03-17T07:29:07.729Z,6.95
2023-03-17T07:31:34.243Z,6.15
2023-03-17T07:34:00.792Z,7.82
2023-03-17T07:36:27.299Z,6.50
2023-03-17T07:38:53.775Z,6.63
2023-03-17T07:41:21.047Z,5.93
2023-03-17T07:43:47.850Z,5.68
2023-03-17T07:46:14.443Z,6.88
2023-03-17T07:48:41.382Z,6.97
2023-03-17T07:51:17.302Z,6.50
2023-03-17T07:53:43.963Z,6.25
2023-03-17T07:56:10.639Z,6.05
2023-03-17T07:58:37.198Z,7.22
2023-03-17T08:01:04.500Z,6.90
2023-03-17T08:03:31.314Z,5.20
2023-03-17T08:05:58.481Z,6.63
2023-03-17T08:08:25.666Z,4.45
2023-03-17T08:10:52.216Z,7.00
2023-03-17T08:13:19.025Z,6.10
2023-03-17T08:15:46.023Z,5.90
2023-03-17T08:18:12.518Z,6.68
2023-03-17T08:20:38.994Z,4.40
2023-03-17T08:23:05.618Z,6.22
2023-03-17T08:25:32.138Z,5.37
2023-03-17T08:27:58.608Z,4.68
2023-03-17T08:30:25.107Z,4.75
2023-03-17T08:32:51.694Z,5.85
2023-03-17T08:35:18.427Z,3.60
2023-03-17T08:37:45.908Z,8.07
2023-03-17T08:40:14.345Z,5.13
2023-03-17T08:42:40.795Z,5.55
2023-03-17T08:45:07.667Z,6.38
2023-03-17T08:47:34.134Z,6.90
2023-03-17T08:50:00.879Z,4.20
2023-03-17T08:52:28.428Z,4.88
2023-03-17T08:54:55.077Z,4.75
2023-03-17T08:57:21.586Z,3.85
2023-03-17T08:59:49.215Z,5.65
2023-03-17T09:02:15.735Z,5.17
2023-03-17T09:04:42.772Z,5.70
2023-03-17T09:07:10.135Z,3.92
2023-03-17T09:09:36.915Z,4.25
2023-03-17T09:12:06.807Z,4.00
2023-03-17T09:14:42.767Z,5.37
2023-03-17T09:17:09.973Z,5.43
2023-03-17T09:19:37.205Z,5.07
2023-03-17T09:22:03.684Z,4.65
2023-03-17T09:24:30.158Z,6.10
2023-03-17T09:26:56.922Z,4.93
2023-03-17T09:29:23.401Z,5.07
2023-03-17T09:31:49.862Z,4.82
2023-03-17T09:34:16.361Z,4.93
2023-03-17T09:36:42.852Z,6.80
2023-03-17T09:39:09.356Z,3.87
2023-03-17T09:41:49.353Z,4.45
2023-03-17T09:44:28.589Z,4.95
2023-03-17T09:47:04.772Z,3.92
2023-03-17T09:49:47.852Z,3.47
2023-03-17T09:52:17.610Z,5.37
2023-03-17T09:54:46.245Z,5.00
2023-03-17T09:57:22.012Z,3.95
2023-03-17T09:59:54.066Z,4.15
2023-03-17T10:02:35.805Z,3.88
2023-03-17T10:05:28.858Z,5.30
2023-03-17T10:08:29.391Z,4.13
2023-03-17T10:11:32.445Z,4.45
2023-03-17T10:14:14.106Z,4.15
2023-03-17T10:17:02.515Z,5.18
2023-03-17T10:19:44.174Z,3.67
2023-03-17T10:22:30.547Z,5.78
2023-03-17T10:25:05.555Z,6.25
2023-03-17T10:27:36.593Z,4.97
2023-03-17T10:30:03.882Z,5.22
2023-03-17T10:32:31.325Z,3.27
2023-03-17T10:34:57.837Z,5.22
2023-03-17T10:37:24.344Z,2.75
2023-03-17T10:39:53.419Z,4.40
2023-03-17T10:42:27.376Z,3.70
2023-03-17T10:45:07.077Z,4.83
2023-03-17T10:47:43.522Z,3.67
2023-03-17T10:50:24.152Z,5.28
2023-03-17T10:53:09.933Z,3.90
2023-03-17T10:55:42.916Z,4.07
2023-03-17T10:58:26.768Z,3.60
2023-03-17T11:01:02.287Z,3.85
2023-03-17T11:03:31.403Z,3.60
2023-03-17T11:06:06.502Z,3.28
2023-03-17T11:08:50.429Z,5.95
2023-03-17T11:11:31.506Z,5.10
2023-03-17T11:14:25.682Z,4.22
2023-03-17T11:16:59.102Z,4.50
2023-03-17T11:20:06.520Z,3.47
2023-03-17T11:22:42.002Z,3.95
2023-03-17T11:25:14.299Z,3.63
2023-03-17T11:27:48.390Z,3.75
2023-03-17T11:31:10.338Z,4.47
2023-03-17T11:33:49.053Z,3.60
2023-03-17T11:36:46.191Z,2.42
2023-03-17T11:39:48.459Z,6.10
2023-03-17T11:42:26.729Z,3.63
2023-03-17T11:45:23.476Z,4.43
2023-03-17T11:48:06.338Z,2.90
2023-03-17T11:50:47.808Z,3.70
2023-03-17T11:53:18.974Z,4.03
2023-03-17T11:55:51.337Z,3.45
2023-03-17T11:58:49.292Z,3.08
2023-03-17T12:01:23.753Z,4.05
2023-03-17T12:03:59.043Z,3.88
2023-03-17T12:06:33.681Z,3.63
2023-03-17T12:09:09.779Z,4.78
2023-03-17T12:11:42.232Z,3.45
2023-03-17T12:14:47.124Z,2.58
2023-03-17T12:17:39.240Z,3.78
2023-03-17T12:20:41.048Z,2.40
2023-03-17T12:23:24.408Z,3.53
2023-03-17T12:25:58.688Z,3.95
2023-03-17T12:28:34.266Z,5.55
2023-03-17T12:31:07.537Z,3.65
2023-03-17T12:33:58.044Z,3.77
2023-03-17T12:36:25.292Z,3.83
2023-03-17T12:39:15.570Z,3.78
2023-03-17T12:42:02.708Z,4.38
2023-03-17T12:44:40.598Z,4.40
2023-03-17T12:47:07.013Z,3.90
2023-03-17T12:50:04.619Z,5.13
2023-03-17T12:52:49.544Z,2.75
2023-03-17T12:55:18.572Z,5.85
2023-03-17T12:57:47.756Z,3.58
2023-03-17T13:00:25.805Z,2.80
2023-03-17T13:03:23.351Z,3.67
2023-03-17T13:05:52.955Z,2.42
2023-03-17T13:08:28.358Z,4.13
2023-03-17T13:11:15.927Z,3.72
2023-03-17T13:13:51.537Z,4.40
2023-03-17T13:16:27.681Z,3.30
2023-03-17T13:19:16.623Z,2.25
2023-03-17T13:22:00.492Z,2.78
2023-03-17T13:24:42.142Z,2.40
2023-03-17T13:27:14.569Z,2.30
2023-03-17T13:29:43.939Z,2.50
2023-03-17T13:32:16.661Z,2.50
2023-03-17T13:34:45.756Z,2.47
2023-03-17T13:37:28.371Z,2.78
2023-03-17T13:40:19.120Z,3.20
2023-03-17T13:43:07.109Z,3.22
2023-03-17T13:45:39.633Z,3.35
2023-03-17T13:48:25.890Z,2.45
2023-03-17T13:51:15.041Z,3.40
2023-03-17T13:53:47.709Z,6.60
2023-03-17T13:56:18.580Z,3.03
2023-03-17T13:59:00.759Z,2.72
2023-03-17T14:01:30.123Z,2.72
2023-03-17T14:03:56.939Z,2.95
2023-03-17T14:06:28.142Z,2.30
2023-03-17T14:08:59.201Z,2.85
2023-03-17T14:11:45.286Z,3.28
2023-03-17T14:14:31.567Z,2.80
2023-03-17T14:17:09.710Z,3.22
2023-03-17T14:19:36.230Z,4.37
2023-03-17T14:22:17.977Z,9.50
2023-03-17T14:24:44.453Z,3.22
2023-03-17T14:27:12.556Z,2.63
2023-03-17T14:29:39.190Z,4.07
2023-03-17T14:32:17.730Z,2.83
2023-03-17T14:34:46.679Z,2.65
2023-03-17T14:37:15.469Z,3.20
2023-03-17T14:39:48.748Z,2.28
2023-03-17T14:42:18.702Z,2.22
2023-03-17T14:44:45.206Z,2.70
2023-03-17T14:47:22.891Z,2.65
2023-03-17T14:49:52.445Z,3.47
2023-03-17T14:52:26.757Z,3.80
2023-03-17T14:54:57.405Z,2.55
2023-03-17T14:57:27.241Z,9.93
2023-03-17T14:59:59.576Z,6.00
2023-03-17T15:02:36.991Z,4.10
2023-03-17T15:05:26.703Z,5.47
2023-03-17T15:07:53.469Z,4.38
2023-03-17T15:10:22.965Z,5.63
2023-03-17T15:12:50.153Z,7.78
2023-03-17T15:15:31.262Z,7.18
2023-03-17T15:18:00.364Z,6.72
2023-03-17T15:20:28.309Z,2.20
2023-03-17T15:23:02.956Z,3.50
2023-03-17T15:25:43.203Z,3.20
2023-03-17T15:28:15.731Z,3.60
2023-03-17T15:30:47.632Z,3.20
2023-03-17T15:33:29.719Z,2.45
2023-03-17T15:35:56.706Z,3.33
2023-03-17T15:38:23.535Z,10.75
2023-03-17T15:40:50.039Z,4.20
2023-03-17T15:43:18.701Z,2.35
2023-03-17T15:45:45.647Z,3.58
2023-03-17T15:48:20.998Z,7.07
2023-03-17T15:50:48.371Z,3.30
2023-03-17T15:53:14.865Z,3.03
2023-03-17T15:55:41.917Z,4.28
2023-03-17T15:58:08.428Z,6.03
2023-03-17T16:00:35.565Z,3.67
2023-03-17T16:03:11.320Z,3.95
2023-03-17T16:05:37.847Z,4.15
2023-03-17T16:08:04.510Z,3.58
2023-03-17T16:10:32.901Z,2.50
2023-03-17T16:13:00.321Z,3.10
2023-03-17T16:15:29.271Z,4.30
2023-03-17T16:17:58.332Z,3.03
2023-03-17T16:20:28.655Z,2.78
2023-03-17T16:22:56.922Z,3.30
2023-03-17T16:25:26.544Z,2.47
2023-03-17T16:27:56.422Z,2.13
2023-03-17T16:30:24.696Z,2.38
2023-03-17T16:32:51.611Z,2.83
2023-03-17T16:35:23.816Z,2.78
2023-03-17T16:37:51.130Z,4.20
2023-03-17T16:40:25.629Z,2.78
2023-03-17T16:42:52.438Z,2.67
2023-03-17T16:45:21.132Z,3.20
2023-03-17T16:47:49.426Z,3.30
2023-03-17T16:50:18.128Z,4.90
2023-03-17T16:52:44.930Z,2.72
2023-03-17T16:55:12.151Z,3.03
2023-03-17T16:57:39.727Z,4.65
2023-03-17T17:00:07.543Z,1.85
2023-03-17T17:02:34.541Z,2.97
2023-03-17T17:05:01.041Z,3.67
2023-03-17T17:07:28.239Z,3.08
2023-03-17T17:09:55.074Z,1.83
2023-03-17T17:12:21.768Z,1.77
2023-03-17T17:14:48.312Z,3.63
2023-03-17T17:17:14.844Z,2.85
2023-03-17T17:19:41.330Z,2.53
2023-03-17T17:22:07.871Z,4.50
2023-03-17T17:24:34.466Z,2.03
2023-03-17T17:27:00.947Z,1.97
2023-03-17T17:29:27.421Z,2.80
2023-03-17T17:31:54.064Z,2.40
2023-03-17T17:34:20.590Z,1.55
2023-03-17T17:36:47.216Z,3.53
2023-03-17T17:39:13.955Z,2.73
2023-03-17T17:41:40.426Z,2.83
2023-03-17T17:44:06.963Z,2.95
2023-03-17T17:46:33.845Z,8.48
2023-03-17T17:49:00.539Z,3.20
2023-03-17T17:51:26.983Z,5.20
2023-03-17T17:53:53.510Z,2.20
2023-03-17T17:56:20.080Z,3.28
2023-03-17T17:58:46.899Z,2.60
2023-03-17T18:01:14.208Z,3.40
2023-03-17T18:03:40.878Z,3.30
2023-03-17T18:06:07.468Z,2.95
2023-03-17T18:08:34.062Z,3.83
2023-03-17T18:11:00.402Z,3.63
2023-03-17T18:13:27.295Z,5.25
2023-03-17T18:15:53.979Z,3.50
2023-03-17T18:18:20.477Z,2.65
2023-03-17T18:20:46.973Z,3.05
2023-03-17T18:23:13.725Z,5.25
2023-03-17T18:25:40.237Z,3.30
2023-03-17T18:28:06.847Z,2.87
2023-03-17T18:30:34.636Z,3.40
2023-03-17T18:33:15.161Z,3.90
2023-03-17T18:35:43.841Z,3.63
2023-03-17T18:38:10.439Z,2.65
2023-03-17T18:40:37.858Z,5.77
2023-03-17T18:43:04.802Z,3.22
2023-03-17T18:45:31.311Z,2.88
2023-03-17T18:47:57.768Z,4.68
2023-03-17T18:50:25.246Z,2.72
2023-03-17T18:52:51.773Z,2.47
2023-03-17T18:55:18.521Z,2.17
2023-03-17T18:57:45.616Z,3.22
2023-03-17T19:00:14.213Z,7.35
2023-03-17T19:02:40.714Z,5.93
2023-03-17T19:05:07.911Z,3.17
2023-03-17T19:07:34.820Z,5.32
2023-03-17T19:10:01.344Z,3.10
2023-03-17T19:12:27.935Z,3.13
2023-03-17T19:14:54.682Z,3.63
2023-03-17T19:17:21.243Z,4.03
2023-03-17T19:19:48.262Z,2.78
2023-03-17T19:22:14.744Z,4.13
2023-03-17T19:24:41.239Z,4.35
2023-03-17T19:27:08.082Z,4.00
2023-03-17T19:29:34.575Z,3.43
2023-03-17T19:32:01.067Z,3.67
2023-03-17T19:34:27.796Z,4.65
2023-03-17T19:36:54.289Z,4.35
2023-03-17T19:39:21.773Z,4.00
2023-03-17T19:41:48.388Z,5.13
2023-03-17T19:44:14.916Z,3.10
2023-03-17T19:46:41.405Z,5.32
2023-03-17T19:49:07.951Z,4.07
2023-03-17T19:51:34.446Z,3.70
2023-03-17T19:54:01.612Z,3.87
2023-03-17T19:56:28.385Z,3.25
2023-03-17T19:58:55.189Z,3.40
2023-03-17T20:01:21.742Z,4.18
2023-03-17T20:03:48.602Z,3.63
2023-03-17T20:06:15.423Z,5.23
2023-03-17T20:08:43.061Z,2.97
2023-03-17T20:11:11.379Z,3.47
2023-03-17T20:13:39.578Z,1.90
2023-03-17T20:16:06.994Z,3.05
2023-03-17T20:18:33.652Z,3.40
2023-03-17T20:21:00.327Z,7.15
2023-03-17T20:23:26.990Z,5.18
2023-03-17T20:25:54.425Z,3.17
2023-03-17T20:28:21.556Z,4.82
2023-03-17T20:30:48.661Z,5.00
2023-03-17T20:33:15.182Z,3.90
2023-03-17T20:35:44.077Z,2.75
2023-03-17T20:38:11.541Z,4.22
2023-03-17T20:40:39.391Z,4.82
2023-03-17T20:43:06.166Z,5.43
2023-03-17T20:45:32.752Z,4.00
2023-03-17T20:47:59.319Z,6.40
2023-03-17T20:50:25.768Z,5.03
2023-03-17T20:52:52.260Z,4.78
2023-03-17T20:55:18.784Z,3.73
2023-03-17T20:57:45.506Z,8.80
2023-03-17T21:00:13.869Z,6.25
2023-03-17T21:02:40.597Z,5.50
2023-03-17T21:05:08.013Z,4.80
2023-03-17T21:07:34.517Z,4.33
2023-03-17T21:10:01.132Z,5.05
2023-03-17T21:12:27.924Z,5.20
2023-03-17T21:14:54.452Z,3.80
2023-03-17T21:17:20.981Z,3.58
2023-03-17T21:19:47.469Z,10.07
2023-03-17T21:22:13.959Z,5.72
2023-03-17T21:24:41.272Z,3.65
2023-03-17T21:27:08.352Z,5.63
2023-03-17T21:29:34.984Z,3.75
2023-03-17T21:32:02.301Z,5.70
2023-03-17T21:34:31.027Z,3.20
2023-03-17T21:36:59.326Z,3.92
2023-03-17T21:39:29.475Z,3.17
2023-03-17T21:41:57.236Z,3.30
2023-03-17T21:44:24.242Z,3.53
2023-03-17T21:46:50.965Z,3.75
2023-03-17T21:49:17.639Z,3.72
2023-03-17T21:51:46.022Z,3.70
2023-03-17T21:54:13.519Z,3.10
2023-03-17T21:56:40.006Z,4.37
2023-03-17T21:59:06.949Z,2.78
2023-03-17T22:01:33.550Z,3.92
2023-03-17T22:04:00.075Z,3.15
2023-03-17T22:06:26.731Z,3.30
2023-03-17T22:08:53.237Z,2.83
2023-03-17T22:11:19.782Z,4.40
2023-03-17T22:13:47.430Z,3.67
2023-03-17T22:16:15.397Z,3.42
2023-03-17T22:18:42.278Z,2.75
2023-03-17T22:21:08.993Z,3.63
2023-03-17T22:23:36.694Z,2.92
2023-03-17T22:26:03.263Z,5.03
2023-03-17T22:28:29.731Z,2.97
2023-03-17T22:30:56.378Z,2.88
2023-03-17T22:33:22.846Z,2.93
2023-03-17T22:35:49.455Z,4.10
2023-03-17T22:38:16.083Z,4.65
2023-03-17T22:40:42.525Z,4.82
2023-03-17T22:43:09.032Z,3.75
2023-03-17T22:45:35.575Z,2.30
2023-03-17T22:48:02.083Z,2.88
2023-03-17T22:50:28.553Z,2.25
2023-03-17T22:52:55.080Z,5.85
2023-03-17T22:55:21.753Z,3.40
2023-03-17T22:57:48.416Z,3.33
2023-03-17T23:00:16.927Z,3.38
2023-03-17T23:02:44.586Z,2.85
2023-03-17T23:05:11.501Z,3.78
2023-03-17T23:07:49.546Z,3.10
2023-03-17T23:10:18.302Z,2.33
2023-03-17T23:12:45.128Z,4.43
2023-03-17T23:15:11.719Z,2.78
2023-03-17T23:17:38.221Z,3.22
2023-03-17T23:20:05.391Z,4.05
2023-03-17T23:22:32.501Z,3.00
2023-03-17T23:24:58.986Z,3.42
2023-03-17T23:27:25.510Z,2.80
2023-03-17T23:29:51.971Z,9.07
2023-03-17T23:32:18.841Z,2.80
2023-03-17T23:34:45.438Z,3.77
2023-03-17T23:37:11.907Z,3.22
2023-03-17T23:39:38.510Z,3.40
2023-03-17T23:42:05.153Z,3.20
2023-03-17T23:44:31.671Z,3.58
2023-03-17T23:46:58.280Z,4.37
2023-03-17T23:49:24.918Z,3.40
2023-03-17T23:51:51.409Z,3.80
2023-03-17T23:54:17.926Z,4.30
2023-03-17T23:56:44.487Z,3.83
2023-03-17T23:59:10.968Z,4.20
